createdAt,value
2019-02-14T00:01:55.976Z,71.80
2019-02-14T00:07:17.751Z,70.90
2019-02-14T00:12:49.181Z,70.80
2019-02-14T00:18:20.556Z,71.10
2019-02-14T00:23:48.213Z,71.30
2019-02-14T00:29:17.154Z,71.30
2019-02-14T00:34:44.514Z,71.20
2019-02-14T00:37:15.530Z,71.00
2019-02-14T00:40:03.726Z,71.20
2019-02-14T00:46:06.996Z,71.30
2019-02-14T00:49:03.822Z,71.40
2019-02-14T00:51:54.179Z,71.30
2019-02-14T00:58:14.808Z,71.30
2019-02-14T01:01:27.523Z,71.10
2019-02-14T01:14:41.745Z,71.50
2019-02-14T01:17:31.344Z,71.80
2019-02-14T01:20:22.749Z,71.50
2019-02-14T01:23:31.817Z,71.40
2019-02-14T01:26:24.477Z,71.20
2019-02-14T01:29:13.781Z,70.90
2019-02-14T01:32:04.045Z,70.80
2019-02-14T01:34:53.452Z,70.70
2019-02-14T01:41:00.430Z,70.80
2019-02-14T01:46:28.951Z,71.80
2019-02-14T01:51:55.251Z,71.20
2019-02-14T01:57:21.961Z,71.20
2019-02-14T02:02:49.710Z,71.00
2019-02-14T02:11:14.591Z,71.20
2019-02-14T02:16:41.674Z,71.30
2019-02-14T02:22:07.671Z,71.20
2019-02-14T02:27:37.382Z,71.00
2019-02-14T02:33:05.395Z,71.30
2019-02-14T02:38:32.248Z,71.30
2019-02-14T02:43:54.230Z,71.20
2019-02-14T02:49:21.117Z,71.40
2019-02-14T02:55:45.402Z,71.40
2019-02-14T02:58:59.001Z,71.50
2019-02-14T03:04:58.716Z,72.30
2019-02-14T03:11:21.042Z,71.50
2019-02-14T03:14:14.539Z,71.60
2019-02-14T03:16:46.490Z,71.50
2019-02-14T03:19:36.691Z,71.30
2019-02-14T03:29:20.198Z,71.20
2019-02-14T03:36:01.371Z,71.30
2019-02-14T03:42:38.029Z,71.50
2019-02-14T03:45:27.966Z,71.60
2019-02-14T03:48:36.283Z,71.70
2019-02-14T03:51:07.211Z,71.60
2019-02-14T03:53:52.980Z,71.60
2019-02-14T03:59:23.803Z,71.60
2019-02-14T04:04:52.393Z,71.80
2019-02-14T04:10:20.200Z,71.70
2019-02-14T04:15:36.680Z,71.70
2019-02-14T04:18:26.717Z,71.50
2019-02-14T04:21:18.480Z,71.30
2019-02-14T04:27:02.322Z,71.20
2019-02-14T04:29:34.805Z,71.10
2019-02-14T04:32:34.750Z,71.30
2019-02-14T04:35:31.586Z,71.30
2019-02-14T04:41:37.057Z,71.10
2019-02-14T04:44:15.366Z,71.20
2019-02-14T04:47:01.775Z,71.30
2019-02-14T04:49:56.256Z,71.50
2019-02-14T04:52:33.112Z,71.50
2019-02-14T04:55:23.027Z,71.50
2019-02-14T04:58:13.175Z,71.40
2019-02-14T05:01:04.312Z,71.40
2019-02-14T05:03:45.363Z,71.30
2019-02-14T05:06:18.701Z,71.20
2019-02-14T05:08:54.724Z,71.10
2019-02-14T05:11:51.583Z,71.10
2019-02-14T05:14:41.971Z,70.90
2019-02-14T05:17:33.844Z,70.60
2019-02-14T05:20:26.655Z,70.60
2019-02-14T05:23:17.663Z,70.80
2019-02-14T05:26:30.805Z,70.70
2019-02-14T05:29:43.929Z,70.50
2019-02-14T05:32:39.038Z,70.80
2019-02-14T05:35:09.818Z,71.10
2019-02-14T05:38:02.988Z,71.30
2019-02-14T05:41:16.562Z,71.20
2019-02-14T05:44:29.236Z,71.30
2019-02-14T05:47:00.827Z,71.40
2019-02-14T05:49:50.800Z,71.60
2019-02-14T05:52:42.951Z,71.70
2019-02-14T05:55:33.814Z,71.80
2019-02-14T05:58:24.226Z,71.70
2019-02-14T06:01:18.454Z,71.70
2019-02-14T06:03:52.137Z,71.50
2019-02-14T06:06:23.903Z,71.50
2019-02-14T06:09:22.213Z,71.50
2019-02-14T06:12:15.475Z,71.20
2019-02-14T06:15:06.575Z,71.40
2019-02-14T06:17:58.103Z,71.40
2019-02-14T06:20:29.925Z,71.40
2019-02-14T06:23:04.083Z,71.70
2019-02-14T06:25:53.848Z,71.60
2019-02-14T06:31:38.659Z,71.30
2019-02-14T06:34:47.417Z,71.60
2019-02-14T06:37:38.207Z,71.80
2019-02-14T06:40:29.474Z,71.80
2019-02-14T06:43:00.803Z,71.60
2019-02-14T06:45:55.995Z,71.70
2019-02-14T06:48:28.499Z,71.60
2019-02-14T06:51:19.011Z,71.60
2019-02-14T06:53:51.210Z,71.60
2019-02-14T06:59:55.931Z,72.40
2019-02-14T07:02:32.462Z,71.80
2019-02-14T07:05:08.358Z,71.90
2019-02-14T07:07:42.735Z,72.00
2019-02-14T07:10:19.523Z,72.00
2019-02-14T07:12:50.785Z,71.90
2019-02-14T07:15:26.764Z,72.00
2019-02-14T07:18:00.216Z,72.00
2019-02-14T07:20:36.046Z,72.00
2019-02-14T07:23:13.467Z,72.10
2019-02-14T07:25:46.806Z,72.80
2019-02-14T07:28:26.806Z,72.00
2019-02-14T07:31:02.066Z,72.30
2019-02-14T07:33:43.128Z,72.50
2019-02-14T07:36:16.200Z,72.60
2019-02-14T07:38:47.853Z,72.60
2019-02-14T07:41:20.102Z,72.70
2019-02-14T07:43:52.410Z,72.80
2019-02-14T07:46:23.633Z,73.00
2019-02-14T07:48:55.483Z,73.00
2019-02-14T07:51:28.180Z,73.20
2019-02-14T07:53:58.982Z,73.20
2019-02-14T07:56:34.357Z,73.20
2019-02-14T07:59:06.629Z,73.30
2019-02-14T08:01:38.470Z,73.50
2019-02-14T08:04:09.122Z,73.70
2019-02-14T08:06:39.787Z,73.80
2019-02-14T08:09:11.403Z,73.80
2019-02-14T08:11:46.133Z,74.00
2019-02-14T08:14:17.972Z,74.10
2019-02-14T08:16:49.852Z,74.00
2019-02-14T08:19:23.671Z,74.00
2019-02-14T08:21:54.397Z,74.20
2019-02-14T08:24:25.895Z,74.10
2019-02-14T08:26:59.037Z,74.10
2019-02-14T08:29:30.217Z,74.10
2019-02-14T08:32:01.847Z,74.20
2019-02-14T08:34:35.591Z,74.20
2019-02-14T08:37:07.922Z,74.30
2019-02-14T08:39:39.324Z,74.10
2019-02-14T08:42:10.056Z,74.20
2019-02-14T08:44:42.939Z,74.20
2019-02-14T08:47:32.151Z,74.10
2019-02-14T08:50:04.498Z,74.30
2019-02-14T08:52:35.437Z,74.20
2019-02-14T08:55:07.265Z,74.80
2019-02-14T08:57:41.395Z,74.00
2019-02-14T09:00:15.248Z,73.90
2019-02-14T09:02:49.890Z,73.90
2019-02-14T09:05:21.964Z,73.70
2019-02-14T09:07:55.244Z,73.70
2019-02-14T09:10:27.809Z,73.70
2019-02-14T09:12:59.130Z,73.70
2019-02-14T09:15:32.071Z,73.50
2019-02-14T09:18:02.819Z,73.40
2019-02-14T09:20:45.702Z,73.20
2019-02-14T09:23:17.984Z,73.10
2019-02-14T09:25:50.856Z,72.90
2019-02-14T09:28:23.230Z,72.70
2019-02-14T09:30:55.798Z,72.50
2019-02-14T09:33:26.849Z,72.40
2019-02-14T09:35:58.182Z,72.50
2019-02-14T09:38:49.687Z,72.30
2019-02-14T09:41:20.767Z,72.20
2019-02-14T09:43:51.108Z,72.00
2019-02-14T09:46:22.591Z,71.70
2019-02-14T09:48:54.995Z,71.70
2019-02-14T09:51:26.497Z,71.90
2019-02-14T09:54:00.550Z,71.80
2019-02-14T09:56:35.424Z,71.90
2019-02-14T09:59:08.855Z,71.70
2019-02-14T10:01:54.600Z,71.60
2019-02-14T10:04:28.064Z,71.20
2019-02-14T10:06:59.597Z,71.10
2019-02-14T10:09:32.763Z,70.50
2019-02-14T10:12:06.578Z,70.00
2019-02-14T10:14:42.147Z,69.60
2019-02-14T10:17:22.086Z,69.40
2019-02-14T10:20:02.442Z,69.30
2019-02-14T10:22:33.996Z,69.30
2019-02-14T10:25:10.205Z,69.10
2019-02-14T10:27:41.855Z,69.00
2019-02-14T10:30:16.542Z,69.10
2019-02-14T10:32:48.956Z,69.30
2019-02-14T10:35:29.896Z,69.40
2019-02-14T10:38:03.587Z,69.50
2019-02-14T10:40:35.705Z,69.20
2019-02-14T10:43:07.701Z,69.00
2019-02-14T10:45:40.790Z,68.90
2019-02-14T10:48:12.058Z,68.80
2019-02-14T10:50:43.905Z,68.60
2019-02-14T10:53:15.221Z,68.70
2019-02-14T10:55:48.582Z,68.60
2019-02-14T10:58:20.125Z,68.20
2019-02-14T11:00:53.868Z,67.90
2019-02-14T11:03:25.020Z,68.00
2019-02-14T11:06:11.696Z,68.50
2019-02-14T11:08:42.791Z,68.20
2019-02-14T11:11:17.244Z,68.20
2019-02-14T11:13:48.686Z,67.80
2019-02-14T11:16:21.576Z,67.30
2019-02-14T11:18:55.039Z,66.60
2019-02-14T11:21:26.702Z,66.00
2019-02-14T11:23:58.425Z,65.50
2019-02-14T11:26:32.696Z,65.40
2019-02-14T11:29:07.088Z,64.80
2019-02-14T11:31:50.277Z,64.30
2019-02-14T11:34:24.873Z,64.80
2019-02-14T11:37:02.287Z,65.10
2019-02-14T11:39:33.236Z,65.40
2019-02-14T11:42:15.417Z,65.10
2019-02-14T11:44:49.401Z,64.60
2019-02-14T11:47:21.323Z,64.00
2019-02-14T11:49:51.736Z,64.00
2019-02-14T11:52:28.142Z,64.10
2019-02-14T11:54:58.729Z,63.90
2019-02-14T11:57:29.844Z,63.80
2019-02-14T12:00:04.789Z,63.80
2019-02-14T12:02:35.137Z,63.40
2019-02-14T12:05:10.793Z,62.80
2019-02-14T12:07:41.085Z,62.60
2019-02-14T12:10:14.021Z,63.60
2019-02-14T12:12:45.412Z,63.70
2019-02-14T12:15:16.766Z,63.10
2019-02-14T12:17:50.106Z,63.10
2019-02-14T12:20:21.191Z,62.60
2019-02-14T12:22:51.523Z,62.60
2019-02-14T12:25:24.941Z,62.40
2019-02-14T12:27:56.993Z,61.90
2019-02-14T12:30:28.875Z,61.70
2019-02-14T12:32:59.763Z,61.60
2019-02-14T12:35:34.241Z,60.80
2019-02-14T12:38:04.281Z,60.90
2019-02-14T12:40:35.283Z,61.00
2019-02-14T12:43:06.053Z,60.90
2019-02-14T12:45:40.723Z,60.70
2019-02-14T12:48:11.290Z,60.20
2019-02-14T12:50:44.526Z,60.30
2019-02-14T12:53:17.379Z,60.30
2019-02-14T12:55:49.412Z,60.20
2019-02-14T12:58:19.627Z,59.80
2019-02-14T13:00:54.049Z,60.00
2019-02-14T13:03:25.562Z,60.10
2019-02-14T13:05:56.768Z,60.30
2019-02-14T13:08:27.306Z,60.40
2019-02-14T13:10:58.067Z,60.00
2019-02-14T13:13:29.450Z,60.00
2019-02-14T13:16:00.602Z,60.10
2019-02-14T13:18:30.908Z,60.00
2019-02-14T13:21:01.262Z,59.90
2019-02-14T13:23:31.712Z,59.60
2019-02-14T13:26:04.019Z,59.70
2019-02-14T13:28:34.778Z,59.00
2019-02-14T13:31:06.312Z,58.50
2019-02-14T13:33:37.172Z,58.80
2019-02-14T13:36:08.341Z,59.10
2019-02-14T13:38:38.285Z,59.20
2019-02-14T13:41:08.785Z,59.00
2019-02-14T13:43:38.760Z,58.80
2019-02-14T13:46:09.108Z,59.00
2019-02-14T13:48:40.050Z,58.80
2019-02-14T13:51:10.512Z,58.80
2019-02-14T13:53:41.127Z,58.90
2019-02-14T13:56:11.490Z,59.20
2019-02-14T13:58:41.544Z,59.40
2019-02-14T14:01:14.743Z,59.10
2019-02-14T14:03:44.642Z,58.90
2019-02-14T14:06:17.820Z,59.00
2019-02-14T14:08:48.373Z,59.00
2019-02-14T14:11:20.376Z,58.90
2019-02-14T14:13:53.378Z,59.00
2019-02-14T14:16:25.403Z,58.80
2019-02-14T14:18:55.945Z,58.00
2019-02-14T14:21:26.547Z,57.80
2019-02-14T14:23:58.932Z,57.90
2019-02-14T14:26:49.336Z,58.40
2019-02-14T14:29:19.499Z,58.70
2019-02-14T14:31:50.197Z,58.10
2019-02-14T14:34:21.017Z,58.10
2019-02-14T14:37:10.987Z,58.30
2019-02-14T14:39:47.578Z,58.10
2019-02-14T14:45:42.871Z,56.80
2019-02-14T14:51:05.159Z,56.30
2019-02-14T14:53:36.402Z,55.90
2019-02-14T14:56:13.180Z,55.60
2019-02-14T14:59:02.663Z,55.60
2019-02-14T15:01:34.342Z,55.10
2019-02-14T15:04:04.423Z,55.50
2019-02-14T15:06:36.303Z,55.10
2019-02-14T15:09:10.015Z,55.00
2019-02-14T15:11:40.304Z,55.20
2019-02-14T15:14:10.556Z,55.20
2019-02-14T15:17:00.707Z,55.10
2019-02-14T15:19:31.214Z,54.90
2019-02-14T15:22:03.731Z,54.90
2019-02-14T15:24:34.741Z,55.30
2019-02-14T15:27:06.926Z,55.90
2019-02-14T15:29:40.235Z,55.80
2019-02-14T15:32:12.165Z,56.40
2019-02-14T15:34:42.124Z,56.80
2019-02-14T15:37:17.975Z,57.20
2019-02-14T15:40:10.034Z,57.40
2019-02-14T15:42:41.076Z,57.30
2019-02-14T15:45:17.823Z,57.30
2019-02-14T15:48:12.196Z,57.70
2019-02-14T15:51:01.444Z,57.60
2019-02-14T15:53:31.761Z,56.90
2019-02-14T15:56:03.407Z,56.30
2019-02-14T15:58:54.711Z,56.60
2019-02-14T16:01:26.902Z,56.70
2019-02-14T16:03:57.375Z,57.20
2019-02-14T16:06:30.345Z,57.50
2019-02-14T16:09:10.148Z,57.70
2019-02-14T16:12:22.981Z,57.70
2019-02-14T16:15:01.235Z,58.10
2019-02-14T16:17:50.704Z,58.30
2019-02-14T16:20:42.511Z,58.10
2019-02-14T16:26:17.123Z,58.40
2019-02-14T16:28:56.012Z,58.70
2019-02-14T16:31:31.463Z,58.90
2019-02-14T16:34:25.035Z,59.10
2019-02-14T16:36:56.113Z,59.50
2019-02-14T16:43:15.081Z,60.20
2019-02-14T16:46:02.459Z,60.50
2019-02-14T16:48:39.732Z,61.10
2019-02-14T16:51:12.264Z,61.60
2019-02-14T16:53:44.156Z,62.00
2019-02-14T16:56:26.336Z,62.40
2019-02-14T16:58:59.639Z,62.20
2019-02-14T17:01:48.663Z,62.50
2019-02-14T17:04:22.153Z,62.70
2019-02-14T17:06:55.596Z,62.90
2019-02-14T17:09:27.430Z,62.90
2019-02-14T17:12:00.975Z,62.90
2019-02-14T17:14:32.583Z,62.80
2019-02-14T17:17:03.902Z,63.20
2019-02-14T17:19:34.382Z,63.30
2019-02-14T17:22:06.810Z,63.40
2019-02-14T17:27:32.071Z,64.00
2019-02-14T17:30:06.387Z,64.80
2019-02-14T17:32:55.224Z,65.10
2019-02-14T17:35:31.073Z,65.00
2019-02-14T17:38:04.313Z,65.60
2019-02-14T17:40:46.613Z,65.00
2019-02-14T17:43:20.981Z,65.40
2019-02-14T17:45:53.366Z,65.50
2019-02-14T17:51:39.791Z,65.70
2019-02-14T17:54:10.370Z,65.50
2019-02-14T17:56:41.717Z,65.90
2019-02-14T17:59:12.341Z,66.10
2019-02-14T18:02:02.923Z,65.80
2019-02-14T18:04:33.436Z,66.00
2019-02-14T18:07:05.139Z,66.10
2019-02-14T18:09:35.286Z,66.40
2019-02-14T18:12:06.339Z,66.50
2019-02-14T18:14:37.213Z,66.60
2019-02-14T18:17:28.022Z,66.40
2019-02-14T18:19:58.685Z,66.60
2019-02-14T18:22:28.842Z,67.10
2019-02-14T18:25:01.636Z,67.30
2019-02-14T18:27:54.938Z,67.20
2019-02-14T18:30:26.053Z,67.20
2019-02-14T18:32:56.991Z,67.40
2019-02-14T18:35:47.038Z,67.30
2019-02-14T18:38:40.270Z,67.30
2019-02-14T18:41:54.000Z,67.40
2019-02-14T18:44:47.439Z,67.60
2019-02-14T18:47:59.083Z,67.70
2019-02-14T18:50:29.832Z,67.90
2019-02-14T18:53:04.928Z,67.90
2019-02-14T18:55:54.893Z,68.30
2019-02-14T18:58:27.715Z,68.00
2019-02-14T19:01:19.086Z,68.00
2019-02-14T19:04:10.067Z,68.90
2019-02-14T19:07:02.581Z,68.60
2019-02-14T19:09:54.576Z,68.40
2019-02-14T19:12:45.351Z,68.90
2019-02-14T19:15:16.352Z,68.90
2019-02-14T19:18:09.422Z,69.10
2019-02-14T19:20:42.224Z,69.50
2019-02-14T19:23:32.516Z,69.50
2019-02-14T19:26:03.893Z,69.60
2019-02-14T19:28:35.434Z,69.70
2019-02-14T19:31:20.558Z,69.80
2019-02-14T19:34:00.495Z,69.60
2019-02-14T19:36:40.413Z,69.40
2019-02-14T19:39:34.609Z,69.50
2019-02-14T19:42:09.431Z,69.50
2019-02-14T19:45:01.946Z,69.50
2019-02-14T19:47:51.619Z,69.60
2019-02-14T19:50:22.159Z,69.50
2019-02-14T19:52:53.194Z,69.10
2019-02-14T19:55:26.429Z,69.20
2019-02-14T19:58:17.003Z,69.30
2019-02-14T20:01:08.867Z,69.30
2019-02-14T20:03:39.810Z,69.10
2019-02-14T20:06:30.614Z,69.20
2019-02-14T20:09:21.115Z,69.70
2019-02-14T20:12:10.877Z,69.90
2019-02-14T20:15:01.088Z,70.10
2019-02-14T20:17:51.667Z,70.10
2019-02-14T20:20:42.190Z,70.10
2019-02-14T20:23:32.422Z,70.30
2019-02-14T20:26:42.281Z,70.30
2019-02-14T20:29:52.145Z,70.50
2019-02-14T20:32:23.017Z,70.40
2019-02-14T20:35:09.153Z,70.10
2019-02-14T20:37:39.872Z,70.40
2019-02-14T20:40:10.582Z,70.50
2019-02-14T20:42:42.571Z,70.50
2019-02-14T20:45:13.785Z,70.30
2019-02-14T20:48:05.030Z,70.40
2019-02-14T20:50:35.203Z,70.70
2019-02-14T20:53:05.455Z,70.20
2019-02-14T20:55:35.590Z,70.00
2019-02-14T20:58:25.783Z,70.00
2019-02-14T21:01:15.995Z,70.20
2019-02-14T21:04:09.512Z,70.10
2019-02-14T21:06:59.194Z,70.30
2019-02-14T21:09:49.262Z,70.50
2019-02-14T21:12:20.707Z,70.90
2019-02-14T21:17:58.951Z,70.90
2019-02-14T21:23:40.943Z,71.00
2019-02-14T21:26:12.019Z,71.10
2019-02-14T21:28:44.173Z,71.40
2019-02-14T21:31:17.383Z,71.20
2019-02-14T21:33:47.818Z,71.30
2019-02-14T21:36:19.590Z,71.50
2019-02-14T21:38:49.924Z,71.50
2019-02-14T21:41:19.995Z,71.50
2019-02-14T21:43:52.692Z,71.80
2019-02-14T21:46:23.247Z,71.60
2019-02-14T21:48:54.133Z,71.80
2019-02-14T21:51:26.632Z,71.90
2019-02-14T21:54:17.975Z,71.80
2019-02-14T21:57:10.253Z,71.80
2019-02-14T21:59:41.569Z,71.80
2019-02-14T22:02:31.333Z,71.60
2019-02-14T22:05:25.075Z,71.40
2019-02-14T22:08:54.663Z,71.20
2019-02-14T22:11:24.941Z,71.20
2019-02-14T22:14:15.108Z,71.10
2019-02-14T22:17:05.660Z,71.00
2019-02-14T22:19:55.085Z,71.20
2019-02-14T22:26:08.741Z,71.30
2019-02-14T22:28:58.669Z,71.40
2019-02-14T22:32:09.105Z,71.60
2019-02-14T22:34:59.738Z,71.60
2019-02-14T22:40:48.793Z,71.60
2019-02-14T22:46:18.580Z,71.90
2019-02-14T22:51:47.199Z,71.90
2019-02-14T23:03:01.906Z,71.80
2019-02-14T23:08:38.233Z,72.00
2019-02-14T23:11:10.538Z,72.20
2019-02-14T23:23:28.816Z,72.20
2019-02-14T23:26:20.235Z,72.00
2019-02-14T23:29:12.146Z,72.00
2019-02-14T23:32:03.157Z,72.40
2019-02-14T23:34:53.634Z,72.10
2019-02-14T23:37:44.885Z,72.10
2019-02-14T23:49:25.194Z,72.50
2019-02-14T23:54:52.818Z,72.60
